Terminal Aerodrome Forecast
Issued by NWS Cleveland, OH

Home | Current Version | Previous Version | Text Only | Print | Product List | Glossary Off
Versions: 1 2 3 4 5 6 7 8 9 10 11 12 13 14 15 16 17

345
FTUS41 KCLE 212343
TAFYNG
TAF
KYNG 212343Z 2200/2224 01006KT P6SM SCT007 OVC025
      TEMPO 2200/2201 BKN007
     FM220500 VRB03KT P6SM SCT080 BKN120
     FM221000 VRB03KT 6SM BR SCT003 SCT120
      TEMPO 2210/2213 2SM BR BKN003
     FM221600 34008KT P6SM SCT025 BKN040=

USA.gov is the U.S. government's official web portal to all federal, state and local government web resources and services.